ENCN/KRS METAR and TAF weather

Enter ICAO airport designator
Station Type Date Time Source
ENCN METAR 2021/05/13 06:50 UTC NOAA

ENCN 130650Z VRB02KT 9999 FEW040 10/09 Q1008


Station Type Date Time Source
ENCN Decoded METAR 2021/05/13 06:50 UTC NOAA

Kristiansand / Kjevik, Norway (ENCN) 58-12N 008-05E 17M
May 13, 2021 - 02:50 AM EDT / 2021.05.13 0650 UTC
Wind: Variable at 2 MPH (2 KT):0
Visibility: greater than 7 mile(s):0
Sky conditions: mostly clear
Temperature: 50 F (10 C)
Dew Point: 48 F (9 C)
Relative Humidity: 93%
Pressure (altimeter): 29.77 in. Hg (1008 hPa)
ob: ENCN 130650Z VRB02KT 9999 FEW040 10/09 Q1008
cycle: 7

Station Type Date Time Source
ENCN TAF 2016/05/06 12:39 UTC NOAA

TAF TAF ENCN 061100Z 0612/0712 14008KT 9999 FEW040

Example: see airport list